Plain Dealing, Louisiana
Current Conditions -  °F | °C
As of 1:50 PM on Monday 22 Dec 2014 (Local Time) from KDTN Reporting Station
Scattered Clouds Scattered Clouds  
Wind Chill: 64°   Ceiling: Unl
Heat Index: 64°   Visibility: 10mi
Dew Point: 55°   Wind: 14mph
Humidity: 73%   Direction: 170°S
Pressure: 29.56"   Gusts: NA
Location:  32.91°N, 93.7°W
Report Text: KDTN 221950Z 17012KT 10SM FEW013 FEW018 SCT038 18/13 A2956 RMK AO2
Loading
Personal Weather Stations






























Interactive Weather Map New forecast layout! Learn more

10-Day Weather Forecast

Advertisements
Track Severe Weather on mobile